Time;durP1;ratioP1;P1;durP2;ratioP2;P2;SDS_P1;SDS_P2;PMS_P1;PMS_P2;Temp;Humidity;BMP_temperature;BMP_pressure;BME280_temperature;BME280_humidity;BME280_pressure;Samples;Min_cycle;Max_cycle;Signal;HPM_P1;HPM_P2
2022/08/15 00:01:51;;;;;;;11.23;10.43;;;26.40;91.40;;;;;;6274877;22;20465;-77
2022/08/15 00:04:18;;;;;;;12.63;11.47;;;26.50;91.40;;;;;;6276650;22;20429;-79
2022/08/15 00:06:47;;;;;;;11.30;10.40;;;26.40;91.50;;;;;;6275770;22;20491;-78
2022/08/15 00:09:18;;;;;;;12.60;11.50;;;26.40;91.50;;;;;;6275251;22;20426;-78
2022/08/15 00:11:48;;;;;;;12.23;11.13;;;26.40;91.50;;;;;;6275928;22;20437;-75
2022/08/15 00:14:20;;;;;;;11.33;10.47;;;26.40;91.50;;;;;;6274875;22;20410;-76
2022/08/15 00:16:49;;;;;;;11.33;10.33;;;26.40;91.60;;;;;;6275834;22;20736;-76
2022/08/15 00:19:19;;;;;;;11.97;10.97;;;26.40;91.60;;;;;;6275705;22;20502;-76
2022/08/15 00:21:53;;;;;;;11.57;10.47;;;26.30;91.70;;;;;;6275886;22;20440;-79
2022/08/15 00:24:23;;;;;;;10.47;9.53;;;26.30;91.80;;;;;;6276091;22;20421;-78
2022/08/15 00:26:56;;;;;;;12.00;11.00;;;26.30;91.80;;;;;;6274260;22;20468;-77
2022/08/15 00:29:25;;;;;;;11.30;10.40;;;26.30;91.90;;;;;;6275201;22;20434;-79
2022/08/15 00:31:54;;;;;;;12.30;11.10;;;26.30;91.90;;;;;;6276377;22;20434;-79
2022/08/15 00:34:23;;;;;;;11.93;10.97;;;26.30;92.00;;;;;;6275579;22;20484;-76
2022/08/15 00:36:50;;;;;;;12.20;11.13;;;26.30;92.10;;;;;;6275971;22;20438;-75
2022/08/15 00:39:19;;;;;;;13.57;12.27;;;26.20;92.10;;;;;;6275544;22;20787;-76
2022/08/15 00:41:48;;;;;;;12.10;11.30;;;26.20;92.30;;;;;;6276621;22;20742;-76
2022/08/15 00:44:19;;;;;;;12.50;11.50;;;26.20;92.30;;;;;;6277027;22;20476;-78
2022/08/15 00:46:50;;;;;;;12.20;11.17;;;26.20;92.50;;;;;;6277107;22;20513;-79
2022/08/15 00:49:20;;;;;;;13.83;12.63;;;26.20;92.60;;;;;;6277438;22;20493;-79
2022/08/15 00:51:52;;;;;;;13.73;12.47;;;26.00;93.00;;;;;;6277751;22;20429;-80
2022/08/15 00:54:24;;;;;;;14.20;12.83;;;25.90;93.90;;;;;;6277032;22;20438;-76
2022/08/15 00:56:55;;;;;;;13.40;12.30;;;25.80;93.80;;;;;;6277616;22;20936;-76
2022/08/15 00:59:26;;;;;;;13.07;11.87;;;25.80;93.90;;;;;;6277473;22;20522;-76
2022/08/15 01:01:54;;;;;;;13.67;12.47;;;25.80;94.10;;;;;;6277160;22;20469;-76
2022/08/15 01:04:23;;;;;;;13.90;12.70;;;25.80;94.20;;;;;;6277208;22;20445;-81
2022/08/15 01:06:50;;;;;;;13.53;12.33;;;25.80;94.40;;;;;;6277111;22;20783;-78
2022/08/15 01:09:19;;;;;;;13.20;12.00;;;25.70;94.50;;;;;;6260427;22;20492;-76
2022/08/15 01:11:50;;;;;;;11.40;10.47;;;25.80;94.60;;;;;;6254517;22;20454;-79
2022/08/15 01:14:19;;;;;;;13.53;12.33;;;25.80;94.60;;;;;;6275443;22;20468;-77
2022/08/15 01:16:47;;;;;;;13.03;11.80;;;25.80;94.70;;;;;;6277517;22;20461;-80
2022/08/15 01:19:21;;;;;;;13.40;12.40;;;25.70;94.90;;;;;;6277025;22;20437;-79
2022/08/15 01:22:11;;;;;;;13.40;12.30;;;25.70;95.10;;;;;;6278018;22;20452;-79
2022/08/15 01:24:56;;;;;;;11.80;10.93;;;25.60;95.20;;;;;;6277691;22;20501;-75
2022/08/15 01:27:29;;;;;;;13.23;12.13;;;25.60;95.30;;;;;;6276176;22;20461;-78
2022/08/15 01:29:58;;;;;;;11.87;10.80;;;25.60;95.50;;;;;;6277469;22;20454;-78
2022/08/15 01:32:25;;;;;;;13.10;12.00;;;25.60;95.60;;;;;;6277646;22;20517;-80
2022/08/15 01:34:53;;;;;;;15.10;13.57;;;25.50;95.70;;;;;;6240883;22;20501;-79
2022/08/15 01:37:22;;;;;;;13.77;12.63;;;25.60;95.80;;;;;;6271113;22;20445;-81
2022/08/15 01:39:57;;;;;;;13.90;12.70;;;25.50;95.90;;;;;;6277296;22;20426;-77
2022/08/15 01:42:32;;;;;;;13.47;12.27;;;25.50;96.10;;;;;;6275274;22;20434;-77
2022/08/15 01:45:05;;;;;;;15.83;14.27;;;25.40;96.50;;;;;;6275484;22;20433;-77
2022/08/15 01:47:39;;;;;;;14.00;12.83;;;25.40;97.00;;;;;;6276482;22;20495;-77
2022/08/15 01:50:09;;;;;;;13.07;12.03;;;25.30;97.30;;;;;;6277634;22;20434;-77
2022/08/15 01:52:40;;;;;;;13.93;12.70;;;25.30;97.40;;;;;;6276044;22;20813;-78
2022/08/15 01:55:13;;;;;;;14.77;13.47;;;25.20;97.70;;;;;;6277082;22;20454;-76
2022/08/15 01:57:40;;;;;;;14.40;13.20;;;25.20;98.10;;;;;;6276327;22;20454;-79
2022/08/15 02:00:12;;;;;;;14.40;13.00;;;25.10;98.70;;;;;;6276669;22;20524;-79
2022/08/15 02:02:39;;;;;;;15.33;14.13;;;25.00;99.20;;;;;;6276695;22;20438;-79
2022/08/15 02:05:10;;;;;;;15.73;14.37;;;25.00;99.30;;;;;;6277235;22;20443;-76
2022/08/15 02:07:37;;;;;;;15.80;14.50;;;24.90;99.60;;;;;;6276664;22;20438;-79
2022/08/15 02:10:06;;;;;;;13.90;12.80;;;24.90;99.80;;;;;;6275951;22;20512;-80
2022/08/15 02:12:37;;;;;;;15.07;13.70;;;24.90;99.90;;;;;;6277395;22;20442;-82
2022/08/15 02:15:12;;;;;;;14.17;12.87;;;24.80;99.90;;;;;;6277316;22;20437;-82
2022/08/15 02:17:39;;;;;;;15.93;14.03;;;24.80;99.90;;;;;;6286610;22;20442;-76
2022/08/15 02:20:07;;;;;;;15.40;13.90;;;24.70;99.90;;;;;;6277006;22;20503;-76
2022/08/15 02:22:34;;;;;;;15.23;14.10;;;24.70;99.90;;;;;;6275938;22;20430;-82
2022/08/15 02:25:01;;;;;;;15.47;14.07;;;24.70;99.90;;;;;;6277228;22;20434;-81
2022/08/15 02:27:32;;;;;;;13.70;12.60;;;24.60;99.90;;;;;;6276253;22;20496;-75
2022/08/15 02:30:04;;;;;;;16.87;15.27;;;24.60;99.90;;;;;;6276661;22;20797;-82
2022/08/15 02:32:32;;;;;;;15.13;13.70;;;24.60;99.90;;;;;;6275198;22;20461;-76
2022/08/15 02:35:00;;;;;;;14.57;13.37;;;24.60;99.90;;;;;;6276851;22;20715;-77
2022/08/15 02:37:27;;;;;;;15.60;14.23;;;24.60;99.90;;;;;;6276093;22;20746;-82
2022/08/15 02:39:54;;;;;;;15.00;13.60;;;24.60;99.90;;;;;;6277004;22;20441;-76
2022/08/15 02:42:21;;;;;;;14.17;12.87;;;24.60;99.90;;;;;;6276730;22;20430;-82
2022/08/15 02:44:50;;;;;;;16.60;13.13;;;24.60;99.90;;;;;;6276016;22;20425;-77
2022/08/15 02:47:19;;;;;;;14.63;13.53;;;24.70;99.90;;;;;;6234670;22;20445;-80
2022/08/15 02:49:47;;;;;;;14.27;13.17;;;24.70;99.90;;;;;;6262341;22;20952;-81
2022/08/15 02:52:15;;;;;;;13.80;12.70;;;24.60;99.90;;;;;;6276618;22;20426;-75
2022/08/15 02:54:42;;;;;;;16.03;14.63;;;24.70;99.90;;;;;;6276318;22;20441;-76
2022/08/15 02:57:10;;;;;;;16.43;14.20;;;24.70;99.90;;;;;;6275998;22;20484;-76
2022/08/15 02:59:37;;;;;;;17.30;15.50;;;24.70;99.90;;;;;;6275887;22;20430;-76
2022/08/15 03:02:05;;;;;;;16.17;14.83;;;24.60;99.90;;;;;;6276355;22;20524;-77
2022/08/15 03:04:35;;;;;;;14.97;13.67;;;24.60;99.90;;;;;;6276276;22;20785;-76
2022/08/15 03:07:02;;;;;;;16.60;15.30;;;24.60;99.90;;;;;;6276504;22;20484;-82
2022/08/15 03:09:29;;;;;;;16.23;14.83;;;24.60;99.90;;;;;;6275621;22;20442;-82
2022/08/15 03:11:57;;;;;;;16.60;15.10;;;24.60;99.90;;;;;;6275770;22;20430;-76
2022/08/15 03:14:26;;;;;;;17.90;16.07;;;24.50;99.90;;;;;;6276784;22;20434;-76
2022/08/15 03:16:57;;;;;;;15.73;14.53;;;24.50;99.90;;;;;;6276091;22;20500;-77
2022/08/15 03:19:25;;;;;;;15.63;14.37;;;24.50;99.90;;;;;;6276001;22;20430;-77
2022/08/15 03:21:55;;;;;;;16.50;15.10;;;24.50;99.90;;;;;;6276025;22;20921;-77
2022/08/15 03:24:22;;;;;;;14.53;13.27;;;24.50;99.90;;;;;;6276551;22;20434;-76
2022/08/15 03:26:50;;;;;;;16.60;15.20;;;24.50;99.90;;;;;;6275192;22;20438;-77
2022/08/15 03:29:20;;;;;;;17.57;16.07;;;24.50;99.90;;;;;;6276343;22;20956;-82
2022/08/15 03:31:50;;;;;;;18.10;16.60;;;24.50;99.90;;;;;;6275656;22;20438;-76
2022/08/15 03:34:19;;;;;;;16.30;14.93;;;24.50;99.90;;;;;;6276551;22;20422;-76
2022/08/15 03:36:53;;;;;;;16.27;14.97;;;24.50;99.90;;;;;;6276133;22;20516;-79
2022/08/15 03:39:22;;;;;;;17.67;16.07;;;24.50;99.90;;;;;;6276608;22;20426;-81
2022/08/15 03:41:49;;;;;;;16.60;15.20;;;24.50;99.90;;;;;;6275433;22;20495;-80
2022/08/15 03:44:16;;;;;;;16.93;15.23;;;24.50;99.90;;;;;;6276574;22;20430;-82
2022/08/15 03:46:43;;;;;;;17.63;16.13;;;24.50;99.90;;;;;;6275264;22;20442;-76
2022/08/15 03:49:13;;;;;;;17.70;16.20;;;24.50;99.90;;;;;;6276197;22;20437;-81
2022/08/15 03:51:40;;;;;;;16.57;15.20;;;24.40;99.90;;;;;;6276018;22;20975;-81
2022/08/15 03:54:07;;;;;;;16.50;15.00;;;24.40;99.90;;;;;;6275404;22;20881;-75
2022/08/15 03:56:36;;;;;;;17.57;16.00;;;24.50;99.90;;;;;;6275797;22;20797;-76
2022/08/15 03:59:03;;;;;;;15.20;14.00;;;24.50;99.90;;;;;;6275764;22;22477;-82
2022/08/15 04:01:34;;;;;;;15.00;13.70;;;24.50;99.90;;;;;;6276879;22;20519;-75
2022/08/15 04:04:01;;;;;;;16.83;15.03;;;24.50;99.90;;;;;;6275496;22;20434;-80
2022/08/15 04:06:30;;;;;;;19.10;17.30;;;24.50;99.90;;;;;;6276639;22;20495;-82
2022/08/15 04:08:59;;;;;;;16.80;15.40;;;24.50;99.90;;;;;;6275642;22;20462;-76
2022/08/15 04:11:30;;;;;;;16.30;14.90;;;24.50;99.90;;;;;;6276468;22;20445;-75
2022/08/15 04:13:59;;;;;;;14.60;13.40;;;24.50;99.90;;;;;;6275216;22;20430;-76
2022/08/15 04:16:26;;;;;;;19.00;17.50;;;24.50;99.90;;;;;;6276587;22;20439;-76
2022/08/15 04:18:54;;;;;;;17.20;15.70;;;24.50;99.90;;;;;;6276931;22;20426;-76
2022/08/15 04:21:21;;;;;;;17.90;16.30;;;24.50;99.90;;;;;;6278395;22;20488;-75
2022/08/15 04:23:50;;;;;;;17.77;15.87;;;24.40;99.90;;;;;;6278116;22;20484;-81
2022/08/15 04:26:18;;;;;;;18.53;17.10;;;24.40;99.90;;;;;;6279443;22;20413;-81
2022/08/15 04:28:45;;;;;;;14.83;13.63;;;24.40;99.90;;;;;;6278302;22;20445;-76
2022/08/15 04:31:16;;;;;;;19.23;17.37;;;24.40;99.90;;;;;;6278577;22;20426;-76
2022/08/15 04:33:44;;;;;;;19.27;17.37;;;24.40;99.90;;;;;;6277843;22;20445;-76
2022/08/15 04:36:14;;;;;;;18.13;16.63;;;24.30;99.90;;;;;;6277456;22;20429;-75
2022/08/15 04:38:43;;;;;;;20.50;18.50;;;24.30;99.90;;;;;;6278120;22;20503;-81
2022/08/15 04:41:12;;;;;;;18.33;16.57;;;24.30;99.90;;;;;;6277936;22;20421;-76
2022/08/15 04:43:41;;;;;;;18.50;16.70;;;24.20;99.90;;;;;;6276652;22;20433;-82
2022/08/15 04:46:08;;;;;;;18.80;16.97;;;24.20;99.90;;;;;;6274300;22;20434;-81
2022/08/15 04:48:41;;;;;;;17.17;15.60;;;24.20;99.90;;;;;;6276201;22;20945;-81
2022/08/15 04:51:09;;;;;;;18.23;16.50;;;24.20;99.90;;;;;;6276135;22;20441;-76
2022/08/15 04:53:38;;;;;;;16.50;15.00;;;24.20;99.90;;;;;;6278076;22;20532;-82
2022/08/15 04:56:07;;;;;;;17.37;15.87;;;24.20;99.90;;;;;;6276394;22;20433;-82
2022/08/15 04:58:35;;;;;;;17.57;15.90;;;24.20;99.90;;;;;;6276239;22;20881;-76
2022/08/15 05:01:06;;;;;;;19.70;17.77;;;24.20;99.90;;;;;;6276617;22;20925;-77
2022/08/15 05:03:33;;;;;;;15.20;13.93;;;24.30;99.90;;;;;;6277365;22;20438;-78
2022/08/15 05:06:05;;;;;;;16.57;15.13;;;24.30;99.90;;;;;;6275895;22;20524;-81
2022/08/15 05:08:35;;;;;;;16.93;15.53;;;24.30;99.90;;;;;;6279356;22;20442;-82
2022/08/15 05:11:06;;;;;;;18.57;16.73;;;24.40;99.90;;;;;;6277333;22;20457;-77
2022/08/15 05:13:36;;;;;;;16.70;15.20;;;24.40;99.90;;;;;;6278123;22;20925;-77
2022/08/15 05:16:07;;;;;;;16.33;14.83;;;24.40;99.90;;;;;;6276465;22;20434;-82
2022/08/15 05:18:37;;;;;;;16.57;15.17;;;24.40;99.90;;;;;;6278255;22;20426;-82
2022/08/15 05:21:07;;;;;;;15.77;14.47;;;24.50;99.90;;;;;;6277260;22;20434;-82
2022/08/15 05:23:36;;;;;;;18.00;16.40;;;24.50;99.90;;;;;;6277862;22;20446;-76
2022/08/15 05:26:05;;;;;;;16.90;15.17;;;24.60;99.90;;;;;;6276898;22;20434;-76
2022/08/15 05:28:32;;;;;;;15.07;13.73;;;24.60;99.90;;;;;;6277427;22;20913;-76
2022/08/15 05:31:01;;;;;;;15.53;14.20;;;24.60;99.90;;;;;;6277486;22;20434;-81
2022/08/15 05:33:30;;;;;;;14.43;13.20;;;24.60;99.90;;;;;;6278736;22;20429;-76
2022/08/15 05:35:59;;;;;;;13.03;12.03;;;24.70;99.90;;;;;;6276678;22;20500;-75
2022/08/15 05:38:33;;;;;;;14.17;13.00;;;24.80;99.90;;;;;;6278093;22;20430;-82
2022/08/15 05:41:15;;;;;;;13.17;11.80;;;24.80;99.90;;;;;;6277265;22;20434;-81
2022/08/15 05:43:55;;;;;;;16.10;14.50;;;24.90;99.90;;;;;;6277992;22;20430;-81
2022/08/15 05:46:41;;;;;;;13.93;12.73;;;24.90;99.90;;;;;;6278178;22;20429;-81
2022/08/15 05:49:24;;;;;;;13.27;12.07;;;24.90;99.90;;;;;;6279614;22;20504;-80
2022/08/15 05:52:02;;;;;;;14.37;13.00;;;25.00;99.90;;;;;;6239640;22;20435;-81
2022/08/15 05:54:41;;;;;;;16.17;14.53;;;25.00;99.90;;;;;;6277583;22;20456;-76
2022/08/15 05:57:16;;;;;;;15.90;14.50;;;25.00;99.90;;;;;;6276919;22;20517;-76
2022/08/15 05:59:49;;;;;;;15.17;13.67;;;25.10;99.90;;;;;;6277295;22;20727;-76
2022/08/15 06:02:23;;;;;;;17.60;15.80;;;25.00;99.90;;;;;;6276989;22;20434;-76
2022/08/15 06:04:57;;;;;;;16.10;14.80;;;25.00;99.90;;;;;;6277419;22;20437;-75
2022/08/15 06:07:31;;;;;;;16.30;15.00;;;25.10;99.90;;;;;;6276523;22;20930;-81
2022/08/15 06:10:03;;;;;;;15.77;14.47;;;25.00;99.90;;;;;;6277708;22;20503;-81
2022/08/15 06:12:35;;;;;;;14.93;13.63;;;25.10;99.90;;;;;;6277087;22;20433;-81
2022/08/15 06:15:14;;;;;;;16.57;14.87;;;25.00;99.90;;;;;;6276090;22;20509;-81
2022/08/15 06:17:45;;;;;;;17.57;15.97;;;25.00;99.90;;;;;;6278199;22;20963;-82
2022/08/15 06:20:18;;;;;;;18.60;16.70;;;25.00;99.90;;;;;;6276468;22;20461;-76
2022/08/15 06:22:56;;;;;;;16.83;14.90;;;24.90;99.90;;;;;;6277449;22;20434;-76
2022/08/15 06:25:33;;;;;;;15.07;13.73;;;24.90;99.90;;;;;;6277464;22;20422;-76
2022/08/15 06:28:15;;;;;;;16.87;15.47;;;24.90;99.90;;;;;;6276530;22;20505;-82
2022/08/15 06:30:48;;;;;;;17.33;15.63;;;25.00;99.90;;;;;;6276378;22;20430;-82
2022/08/15 06:33:26;;;;;;;18.00;16.50;;;25.00;99.90;;;;;;6277849;22;20429;-82
2022/08/15 06:36:00;;;;;;;18.57;16.37;;;24.90;99.90;;;;;;6276657;22;20438;-82
2022/08/15 06:38:38;;;;;;;17.20;15.80;;;25.00;99.90;;;;;;6277421;22;20433;-82
2022/08/15 06:41:18;;;;;;;18.00;16.30;;;25.00;99.90;;;;;;6278506;22;20774;-82
2022/08/15 06:43:48;;;;;;;16.47;15.00;;;25.10;99.90;;;;;;6276760;22;20434;-81
2022/08/15 06:46:16;;;;;;;14.93;13.77;;;25.10;99.90;;;;;;6276811;22;20433;-82
2022/08/15 06:48:44;;;;;;;16.67;14.97;;;25.20;99.90;;;;;;6274991;22;20430;-76
2022/08/15 06:51:13;;;;;;;17.27;15.60;;;25.20;99.90;;;;;;6277139;22;20505;-82
2022/08/15 06:53:45;;;;;;;15.87;14.40;;;25.20;99.90;;;;;;6276430;22;20794;-76
2022/08/15 06:56:24;;;;;;;15.53;14.03;;;25.30;99.90;;;;;;6276643;22;20785;-76
2022/08/15 06:58:57;;;;;;;16.03;14.57;;;25.40;99.90;;;;;;6277552;22;20434;-81
2022/08/15 07:01:35;;;;;;;15.57;14.17;;;25.40;99.90;;;;;;6277588;22;20871;-80
2022/08/15 07:04:10;;;;;;;15.30;14.00;;;25.50;99.90;;;;;;6275141;22;20496;-82
2022/08/15 07:06:42;;;;;;;15.00;13.40;;;25.50;99.90;;;;;;6277472;22;20433;-81
2022/08/15 07:09:34;;;;;;;15.70;14.40;;;25.60;99.90;;;;;;6277400;22;20430;-82
2022/08/15 07:12:26;;;;;;;14.67;13.50;;;25.60;99.90;;;;;;6274868;22;20508;-81
2022/08/15 07:14:58;;;;;;;15.10;13.80;;;25.70;99.90;;;;;;6275342;22;20449;-81
2022/08/15 07:17:34;;;;;;;15.17;13.77;;;25.80;99.90;;;;;;6276667;22;20468;-82
2022/08/15 07:20:01;;;;;;;13.20;11.83;;;25.80;99.90;;;;;;6245317;22;20466;-81
2022/08/15 07:22:30;;;;;;;14.50;13.30;;;26.00;99.90;;;;;;6266572;22;20430;-82
2022/08/15 07:24:58;;;;;;;14.07;12.83;;;26.00;99.90;;;;;;6276408;22;20467;-76
2022/08/15 07:27:30;;;;;;;14.40;13.20;;;26.10;99.90;;;;;;6274722;22;20430;-83
2022/08/15 07:30:05;;;;;;;14.30;12.90;;;26.20;99.90;;;;;;6275699;22;20433;-82
2022/08/15 07:32:48;;;;;;;13.57;12.47;;;26.30;99.90;;;;;;6274999;22;20503;-81
2022/08/15 07:35:24;;;;;;;11.00;10.10;;;26.50;99.90;;;;;;6276204;22;20808;-81
2022/08/15 07:37:56;;;;;;;15.93;11.27;;;26.60;99.90;;;;;;6276470;22;20437;-82
2022/08/15 07:40:27;;;;;;;12.17;11.27;;;26.70;99.90;;;;;;6276716;22;20430;-82
2022/08/15 07:42:56;;;;;;;12.07;10.97;;;26.80;99.90;;;;;;6276632;22;21020;-82
2022/08/15 07:45:30;;;;;;;11.00;10.10;;;26.90;99.90;;;;;;6274613;22;20521;-76
2022/08/15 07:47:59;;;;;;;11.70;10.80;;;27.00;99.90;;;;;;6215285;22;20952;-81
2022/08/15 07:50:34;;;;;;;12.00;10.87;;;27.10;99.90;;;;;;6214898;22;20436;-76
2022/08/15 07:53:10;;;;;;;10.30;9.50;;;27.20;99.90;;;;;;6215371;22;20448;-81
2022/08/15 07:55:38;;;;;;;11.57;10.67;;;27.20;99.90;;;;;;6215477;22;20423;-82
2022/08/15 07:58:16;;;;;;;11.87;10.87;;;27.20;99.80;;;;;;6215372;22;20510;-81
2022/08/15 08:00:53;;;;;;;11.07;10.17;;;27.30;99.90;;;;;;6215391;22;20428;-78
2022/08/15 08:03:24;;;;;;;10.20;9.40;;;27.40;99.40;;;;;;6214723;22;20431;-82
2022/08/15 08:05:57;;;;;;;10.20;9.40;;;27.40;99.10;;;;;;6207828;22;20442;-82
2022/08/15 08:11:44;;;;;;;11.03;10.17;;;27.40;99.00;;;;;;6206404;22;20509;-82
2022/08/15 08:14:26;;;;;;;9.93;9.10;;;27.50;98.60;;;;;;6198993;22;20473;-82
2022/08/15 08:16:57;;;;;;;11.67;10.57;;;27.50;98.40;;;;;;6234625;23;20450;-76
2022/08/15 08:19:39;;;;;;;11.00;10.00;;;27.50;98.50;;;;;;6213454;22;20459;-82
2022/08/15 08:22:26;;;;;;;10.27;9.47;;;27.60;98.20;;;;;;6215392;22;20431;-82
2022/08/15 08:25:01;;;;;;;11.63;10.60;;;27.70;98.10;;;;;;6214887;22;20450;-76
2022/08/15 08:27:46;;;;;;;11.07;10.17;;;27.80;97.90;;;;;;6215563;22;20435;-76
2022/08/15 08:30:19;;;;;;;12.37;11.33;;;27.80;97.70;;;;;;6211915;22;20515;-79
2022/08/15 08:32:57;;;;;;;10.83;10.03;;;27.90;97.60;;;;;;6224323;22;20905;-76
2022/08/15 08:35:42;;;;;;;11.27;10.40;;;27.90;97.50;;;;;;6212746;22;20436;-81
2022/08/15 08:38:21;;;;;;;11.90;10.90;;;28.00;97.30;;;;;;6202820;22;20966;-81
2022/08/15 08:43:51;;;;;;;11.17;10.37;;;28.10;97.00;;;;;;6218709;22;20498;-82
2022/08/15 08:46:30;;;;;;;11.20;10.40;;;28.20;96.50;;;;;;6235476;22;20437;-77
2022/08/15 08:49:07;;;;;;;10.90;10.00;;;28.30;96.60;;;;;;6274176;22;20492;-77
2022/08/15 08:51:44;;;;;;;10.50;9.60;;;28.30;96.50;;;;;;6274443;22;20433;-83
2022/08/15 08:54:19;;;;;;;11.00;10.10;;;28.40;96.20;;;;;;6275808;22;20421;-77
2022/08/15 08:56:53;;;;;;;9.93;9.23;;;28.50;96.20;;;;;;6274617;22;20434;-77
2022/08/15 08:59:28;;;;;;;12.63;11.37;;;28.50;95.90;;;;;;6273769;22;20453;-77
2022/08/15 09:02:00;;;;;;;10.90;9.87;;;28.50;95.60;;;;;;6276341;22;20436;-82
2022/08/15 09:04:49;;;;;;;11.80;10.90;;;28.50;95.50;;;;;;6276946;22;20448;-77
2022/08/15 09:07:28;;;;;;;10.63;9.83;;;28.50;95.60;;;;;;6276818;22;20491;-77
2022/08/15 09:10:00;;;;;;;11.27;10.47;;;28.60;95.50;;;;;;6277755;22;20437;-83
2022/08/15 09:15:22;;;;;;;11.97;11.03;;;28.60;95.50;;;;;;6276631;22;20445;-77
2022/08/15 09:17:55;;;;;;;13.47;12.07;;;28.50;95.60;;;;;;6264371;22;20437;-82
2022/08/15 09:20:26;;;;;;;11.50;10.60;;;28.40;95.70;;;;;;6236388;22;20506;-77
2022/08/15 09:22:56;;;;;;;11.30;10.50;;;28.40;95.70;;;;;;6277823;22;20434;-82
2022/08/15 09:25:25;;;;;;;12.23;11.23;;;28.40;95.70;;;;;;6261189;22;20434;-77
2022/08/15 09:28:04;;;;;;;12.63;11.60;;;28.50;95.60;;;;;;6276312;22;20441;-77
2022/08/15 09:30:36;;;;;;;12.60;11.60;;;28.40;95.50;;;;;;6276411;22;20796;-82
2022/08/15 09:33:17;;;;;;;11.77;10.87;;;28.40;95.40;;;;;;6277015;22;20442;-82
2022/08/15 09:36:12;;;;;;;11.30;10.30;;;28.40;95.40;;;;;;6230295;22;20443;-77
2022/08/15 09:38:59;;;;;;;13.23;12.23;;;28.40;95.20;;;;;;6274419;22;20823;-82
2022/08/15 09:41:43;;;;;;;12.57;11.57;;;28.40;95.40;;;;;;6276945;22;21156;-82
2022/08/15 09:44:49;;;;;;;11.93;11.03;;;28.50;95.30;;;;;;6278379;22;20488;-75
2022/08/15 09:47:46;;;;;;;11.80;10.80;;;28.60;95.20;;;;;;6276506;22;20925;-76
2022/08/15 09:50:46;;;;;;;11.77;10.87;;;28.70;94.90;;;;;;6243599;22;20753;-76
2022/08/15 09:53:40;;;;;;;12.60;11.70;;;28.80;94.40;;;;;;6247081;22;20718;-76
2022/08/15 09:56:18;;;;;;;10.30;9.50;;;28.70;94.20;;;;;;6273561;22;20737;-76
2022/08/15 09:58:53;;;;;;;11.70;10.70;;;28.80;94.10;;;;;;6274557;22;20430;-76
2022/08/15 10:01:30;;;;;;;12.03;10.63;;;28.90;94.00;;;;;;6275849;22;20436;-76
2022/08/15 10:04:12;;;;;;;12.83;11.83;;;29.00;93.60;;;;;;6274161;22;20465;-81
2022/08/15 10:07:11;;;;;;;10.50;9.60;;;29.00;93.40;;;;;;6225266;22;20526;-81
2022/08/15 10:09:44;;;;;;;12.47;11.23;;;29.00;93.40;;;;;;6276885;22;20430;-77
2022/08/15 10:12:31;;;;;;;13.37;12.13;;;29.00;93.30;;;;;;6242828;22;20498;-84
2022/08/15 10:15:07;;;;;;;14.07;12.67;;;29.00;93.20;;;;;;6273494;22;20421;-77
2022/08/15 10:17:45;;;;;;;11.47;10.57;;;29.00;93.20;;;;;;6276536;22;20465;-82
2022/08/15 10:20:48;;;;;;;11.90;10.77;;;28.90;92.90;;;;;;6244438;22;20517;-82
2022/08/15 10:23:16;;;;;;;12.03;10.90;;;28.90;93.30;;;;;;6271468;22;20492;-81
2022/08/15 10:26:13;;;;;;;13.10;10.27;;;28.90;93.00;;;;;;6277448;22;20461;-82
2022/08/15 10:28:40;;;;;;;11.80;10.60;;;28.90;92.90;;;;;;6261110;22;20434;-82
2022/08/15 10:31:44;;;;;;;11.90;11.00;;;28.90;93.00;;;;;;6277052;22;20434;-77
2022/08/15 10:34:37;;;;;;;12.33;11.37;;;29.10;93.00;;;;;;6258174;22;20897;-83
2022/08/15 10:37:16;;;;;;;11.57;10.77;;;29.30;92.80;;;;;;6278314;22;20518;-79
2022/08/15 10:40:02;;;;;;;10.93;10.03;;;29.30;92.40;;;;;;6278248;22;20433;-77
2022/08/15 10:42:39;;;;;;;11.97;11.07;;;29.30;92.20;;;;;;6281831;22;20430;-79
2022/08/15 10:45:36;;;;;;;11.53;10.57;;;29.20;92.10;;;;;;6276233;22;20873;-78
2022/08/15 10:48:11;;;;;;;11.17;10.17;;;29.40;92.20;;;;;;6272055;22;20887;-78
2022/08/15 10:50:51;;;;;;;10.67;9.87;;;29.50;91.80;;;;;;6275601;22;20461;-78
2022/08/15 10:53:30;;;;;;;11.50;10.50;;;29.60;91.60;;;;;;6277355;22;20503;-76
2022/08/15 10:56:13;;;;;;;12.37;11.47;;;29.60;91.30;;;;;;6273912;22;20422;-77
2022/08/15 10:58:45;;;;;;;10.20;9.30;;;29.70;90.90;;;;;;6263642;22;20924;-81
2022/08/15 11:01:31;;;;;;;11.83;10.00;;;29.60;90.80;;;;;;6242598;22;20962;-76
2022/08/15 11:04:20;;;;;;;11.60;10.40;;;29.60;91.00;;;;;;6231261;22;20473;-82
2022/08/15 11:06:56;;;;;;;10.97;10.17;;;29.50;91.00;;;;;;6266010;22;20430;-82
2022/08/15 11:09:30;;;;;;;11.47;10.60;;;29.60;91.00;;;;;;6261163;22;20507;-81
2022/08/15 11:12:00;;;;;;;11.50;10.50;;;29.70;90.80;;;;;;6276716;22;20432;-82
2022/08/15 11:14:37;;;;;;;10.93;9.90;;;29.60;90.80;;;;;;6258556;22;20437;-76
2022/08/15 11:17:23;;;;;;;11.50;10.33;;;29.60;90.80;;;;;;6276321;22;20448;-83
2022/08/15 11:19:54;;;;;;;10.77;10.00;;;29.60;90.70;;;;;;6276236;22;20434;-81
2022/08/15 11:22:33;;;;;;;11.23;10.23;;;29.60;90.50;;;;;;6239560;22;20430;-82
2022/08/15 11:25:03;;;;;;;10.57;9.77;;;29.70;90.40;;;;;;6272521;22;20715;-76
2022/08/15 11:27:34;;;;;;;10.60;9.70;;;29.80;90.10;;;;;;6274077;22;20430;-83
2022/08/15 11:30:08;;;;;;;12.13;11.13;;;29.90;90.10;;;;;;6257898;22;20517;-83
2022/08/15 11:32:38;;;;;;;10.27;9.47;;;30.00;89.70;;;;;;6252544;22;20427;-82
2022/08/15 11:35:22;;;;;;;12.73;11.50;;;30.00;89.30;;;;;;6275495;22;20438;-77
2022/08/15 11:38:01;;;;;;;10.27;9.37;;;30.10;88.60;;;;;;6273973;22;20533;-78
2022/08/15 11:43:36;;;;;;;10.87;9.97;;;30.00;88.00;;;;;;6237146;22;20480;-82
2022/08/15 11:47:07;;;;;;;12.60;11.60;;;30.00;87.80;;;;;;6261491;22;20429;-78
2022/08/15 11:49:42;;;;;;;10.53;9.63;;;30.00;88.10;;;;;;6202608;22;20518;-75
2022/08/15 11:52:10;;;;;;;9.77;9.07;;;30.00;88.20;;;;;;6238430;22;20486;-82
2022/08/15 11:54:37;;;;;;;11.57;10.77;;;30.00;87.70;;;;;;6273297;22;20713;-81
2022/08/15 11:57:07;;;;;;;10.03;9.33;;;30.00;87.00;;;;;;6276956;22;20437;-81
2022/08/15 11:59:37;;;;;;;11.10;10.30;;;30.10;87.50;;;;;;6275688;22;20492;-81
2022/08/15 12:02:12;;;;;;;10.83;10.00;;;30.10;87.30;;;;;;6275191;22;20438;-82
2022/08/15 12:04:43;;;;;;;10.40;9.60;;;30.10;87.30;;;;;;6274518;22;20440;-81
2022/08/15 12:07:14;;;;;;;11.40;10.60;;;30.20;87.20;;;;;;6275934;22;20507;-82
2022/08/15 12:09:54;;;;;;;11.37;10.40;;;30.20;86.90;;;;;;6275546;22;20431;-82
2022/08/15 12:12:28;;;;;;;10.97;10.17;;;30.30;87.30;;;;;;6274968;22;20430;-77
2022/08/15 12:14:59;;;;;;;11.63;10.63;;;30.30;86.20;;;;;;6275743;22;20731;-83
2022/08/15 12:17:29;;;;;;;10.67;9.83;;;30.20;85.80;;;;;;6276973;22;20438;-83
2022/08/15 12:19:57;;;;;;;12.10;11.20;;;30.20;86.10;;;;;;6276211;22;20422;-78
2022/08/15 12:22:31;;;;;;;12.13;10.90;;;30.20;85.60;;;;;;6277008;22;20495;-77
2022/08/15 12:24:59;;;;;;;9.80;9.10;;;30.20;85.40;;;;;;6285968;22;20434;-82
2022/08/15 12:27:26;;;;;;;11.13;10.33;;;30.20;85.40;;;;;;6286483;22;20434;-83
2022/08/15 12:29:53;;;;;;;11.97;10.90;;;30.10;85.30;;;;;;6285299;22;20444;-83
2022/08/15 12:32:20;;;;;;;11.03;10.23;;;30.20;85.20;;;;;;6278717;22;20434;-77
2022/08/15 12:34:49;;;;;;;11.10;10.10;;;30.20;85.10;;;;;;6278053;22;20434;-81
2022/08/15 12:37:20;;;;;;;10.43;9.50;;;30.20;84.40;;;;;;6287312;22;20438;-83
2022/08/15 12:39:49;;;;;;;11.73;10.80;;;30.10;84.60;;;;;;6278734;22;20445;-77
2022/08/15 12:42:21;;;;;;;11.10;10.03;;;30.10;84.60;;;;;;6278931;22;20509;-77
2022/08/15 12:44:51;;;;;;;11.10;10.20;;;30.20;85.00;;;;;;6280767;22;20430;-78
2022/08/15 12:47:18;;;;;;;9.33;8.60;;;30.20;84.50;;;;;;6279259;22;20462;-77
2022/08/15 12:49:45;;;;;;;10.57;9.67;;;30.30;83.30;;;;;;6279250;22;20437;-78
2022/08/15 12:52:12;;;;;;;11.43;10.50;;;30.30;82.90;;;;;;6280238;22;20511;-77
2022/08/15 12:54:41;;;;;;;10.80;9.90;;;30.40;82.60;;;;;;6280557;22;20805;-78
2022/08/15 12:57:08;;;;;;;10.73;9.87;;;30.40;82.40;;;;;;6280347;22;20890;-77
2022/08/15 12:59:35;;;;;;;11.13;10.23;;;30.50;82.40;;;;;;6283849;22;20430;-83
2022/08/15 13:02:04;;;;;;;10.17;9.40;;;30.50;82.00;;;;;;6284523;22;20429;-77
2022/08/15 13:04:31;;;;;;;10.50;9.70;;;30.50;81.80;;;;;;6279638;22;20430;-77
2022/08/15 13:07:03;;;;;;;10.97;10.10;;;30.50;82.10;;;;;;6278070;22;20505;-76
2022/08/15 13:09:32;;;;;;;11.37;10.40;;;30.50;82.30;;;;;;6279294;22;20434;-77
2022/08/15 13:12:04;;;;;;;11.50;10.60;;;30.50;83.00;;;;;;6279627;22;20426;-82